Terminal Aerodrome Forecast
Issued by NWS

Home | Current Version | Previous Version | Graphics & Text | Print | Product List | Glossary On
Versions: 1 2 3 4 5 6 7 8 9 10 11 12 13 14 15 16 17 18 19 20 21 22 23 24 25 26 27 28 29 30 31 32 33 34 35 36 37 38 39
000
FTUS43 KLOT 311900 AAA
TAFMDW
TAF AMD
KMDW 311953Z 3120/0118 25011KT P6SM BKN060 BKN100
     FM312100 25012KT P6SM BKN040 OVC080
     FM312300 26004KT P6SM OVC025
     FM010200 VRB03KT 1 1/2SM -SN SCT007 OVC015
     FM010500 04007KT 1SM -SN OVC007
     FM010900 05011KT 1/2SM SN OVC007
     FM011400 06017G27KT 1/2SM SN OVC005=

USA.gov is the U.S. government's official web portal to all federal, state and local government web resources and services.